Terminal Aerodrome Forecast
Issued by NWS

Home | Current Version | Previous Version | Text Only | Print | Product List | Glossary On
Versions: 1 2 3 4 5 6 7 8 9 10 11 12 13 14 15 16 17
000
FTUS45 KGJT 231522 AAB
TAFTEX
TAF AMD
KTEX 231522Z 2315/2412 29012G29KT 1SM +TSRA BKN003 OVC025CB
     FM231700 18009KT 4SM -SHRA VCTS SCT020CB BKN025
     FM232000 19009KT 5SM -SHRA VCTS SCT030CB BKN035
     FM240000 20007KT 6SM -SHRA SCT020 BKN035
     FM240200 17005KT P6SM VCSH SCT025 BKN045
     FM240500 16005KT P6SM FEW035 SCT070=

USA.gov is the U.S. government's official web portal to all federal, state and local government web resources and services.